Portugal Quinto — CUPR3 — position and weather

sailwx.info

Track history (hours):
 
Tides and Currents Weather Stations Pressure Air Temp Water Temp Dewpoint Dewpoint Depression Visibility Wind Speed Wind Dir Waves Ship Positions

Portugal Quinto

Last reported at 2017-Oct-19 03:32 UTC. Time now 2017-Oct-19 05:44 UTC.
Position N 37°08' W 008°32'.

Length 21 m.

Type: Fishing. MMSI: 263406770.

Date/timePositionNaut miles runAvg speedWind from/ knotsBaromVisibWave heightAir tempDewpointWater temp
2017-Oct-19 03:32N 37°08' W 008°32'0 0.0
2017-Oct-19 03:30N 37°08' W 008°32'3 6.9
2017-Oct-19 03:00N 37°05' W 008°33'4 7.1
2017-Oct-19 02:30N 37°02' W 008°35'4 7.1
2017-Oct-19 02:00N 37°02' W 008°39'2 4.1
2017-Oct-19 01:30N 37°03' W 008°41'4 7.7
2017-Oct-19 01:00N 37°05' W 008°36'4 7.6
2017-Oct-19 00:30N 37°06' W 008°32'2 3.5
2017-Oct-19 00:00N 37°08' W 008°32'  
2017-Oct-16 00:35N 37°08' W 008°32'0 0.0
2017-Oct-16 00:30N 37°08' W 008°32'2 4.8
2017-Oct-16 00:00N 37°06' W 008°32'2 4.7
2017-Oct-15 23:29N 37°08' W 008°32'  
2017-Oct-13 07:49N 37°08' W 008°32'0 0.0
2017-Oct-13 07:31N 37°08' W 008°32'0 0.0
2017-Oct-13 07:00N 37°08' W 008°32'0 0.2
2017-Oct-13 06:30N 37°08' W 008°32'1 1.1
2017-Oct-13 06:00N 37°07' W 008°32'4 8.6
2017-Oct-13 05:30N 37°03' W 008°30'5 6.5
2017-Oct-13 04:46N 36°59' W 008°28'0 0.6
2017-Oct-13 04:29N 36°59' W 008°28'1 0.6
2017-Oct-13 02:44N 36°59' W 008°26'0 0.4
2017-Oct-13 02:22N 36°59' W 008°26'3 2.6
2017-Oct-13 01:02N 37°00' W 008°30'2 7.6
2017-Oct-13 00:43N 36°59' W 008°33'1 5.3
2017-Oct-13 00:27N 37°00' W 008°35'5 7.3
2017-Oct-12 23:44N 37°05' W 008°33'2 8.8
2017-Oct-12 23:30N 37°07' W 008°32'1 0.1
2017-Oct-12 08:58N 37°08' W 008°32'0 0.0
2017-Oct-12 08:30N 37°08' W 008°32'0 0.2
2017-Oct-12 08:00N 37°08' W 008°32'2 3.6
2017-Oct-12 07:30N 37°06' W 008°32'5 9.1
2017-Oct-12 06:57N 37°03' W 008°37'3 6.9
2017-Oct-12 06:30N 37°01' W 008°40'0 0.5
2017-Oct-12 05:55N 37°01' W 008°40'0 0.3
2017-Oct-12 05:29N 37°01' W 008°40'0 0.2
2017-Oct-12 04:59N 37°01' W 008°39'3 5.5
2017-Oct-12 04:30N 37°00' W 008°36'1 2.0
2017-Oct-12 03:59N 37°01' W 008°36'1 2.0
2017-Oct-12 03:30N 37°00' W 008°37'0 0.6
2017-Oct-12 02:59N 37°00' W 008°36'0 0.5
2017-Oct-12 02:30N 37°00' W 008°36'0 0.2
2017-Oct-12 02:00N 37°00' W 008°36'0 0.5
2017-Oct-12 01:27N 37°01' W 008°36'1 1.4
2017-Oct-12 01:00N 37°00' W 008°35'1016.1
2017-Oct-12 00:23N 37°01' W 008°23'614.9
2017-Oct-11 23:59N 37°03' W 008°30'4 7.4
2017-Oct-11 23:30N 37°06' W 008°32'2 0.1
2017-Oct-10 07:48N 37°08' W 008°32'2 5.9
2017-Oct-10 07:25N 37°06' W 008°32'2 5.6
2017-Oct-10 07:01N 37°04' W 008°33'3 5.9
2017-Oct-10 06:30N 37°01' W 008°35'3 5.9
2017-Oct-10 06:00N 37°01' W 008°39'4 7.3
2017-Oct-10 05:30N 37°02' W 008°43'4 7.3
2017-Oct-10 04:59N 37°01' W 008°48'3 7.2
2017-Oct-10 04:30N 37°00' W 008°52'4 7.2
2017-Oct-10 04:00N 36°59' W 008°57'2 4.4
2017-Oct-10 03:30N 37°01' W 008°58'3 5.1
2017-Oct-10 03:00N 36°59' W 008°57'3 4.8
2017-Oct-10 02:25N 37°00' W 008°54'5 9.0
2017-Oct-10 01:55N 37°02' W 008°49'3 7.1
2017-Oct-10 01:30N 37°02' W 008°45'4 8.3
2017-Oct-10 00:59N 37°01' W 008°40'3 5.5
2017-Oct-10 00:22N 37°00' W 008°35'2 5.7
2017-Oct-10 00:00N 37°02' W 008°34'5 8.2
2017-Oct-09 23:25N 37°07' W 008°32'1 3.5
2017-Oct-09 23:00N 37°08' W 008°32'  
Track history (hours):
 
Tides and Currents Weather Stations Pressure Air Temp Water Temp Dewpoint Dewpoint Depression Visibility Wind Speed Wind Dir Waves Ship Positions

Portugal Quinto

Last reported at 2017-Oct-19 03:32 UTC. Time now 2017-Oct-19 05:44 UTC.
Position N 37°08' W 008°32'.

Length 21 m.

Type: Fishing. MMSI: 263406770.

Date/timePositionNaut miles runAvg speedWind from/ knotsBaromVisibWave heightAir tempDewpointWater temp
2017-Oct-19 03:32N 37°08' W 008°32'0 0.0
2017-Oct-19 03:30N 37°08' W 008°32'3 6.9
2017-Oct-19 03:00N 37°05' W 008°33'4 7.1
2017-Oct-19 02:30N 37°02' W 008°35'4 7.1
2017-Oct-19 02:00N 37°02' W 008°39'2 4.1
2017-Oct-19 01:30N 37°03' W 008°41'4 7.7
2017-Oct-19 01:00N 37°05' W 008°36'4 7.6
2017-Oct-19 00:30N 37°06' W 008°32'2 3.5
2017-Oct-19 00:00N 37°08' W 008°32'  
2017-Oct-16 00:35N 37°08' W 008°32'0 0.0
2017-Oct-16 00:30N 37°08' W 008°32'2 4.8
2017-Oct-16 00:00N 37°06' W 008°32'2 4.7
2017-Oct-15 23:29N 37°08' W 008°32'  
2017-Oct-13 07:49N 37°08' W 008°32'0 0.0
2017-Oct-13 07:31N 37°08' W 008°32'0 0.0
2017-Oct-13 07:00N 37°08' W 008°32'0 0.2
2017-Oct-13 06:30N 37°08' W 008°32'1 1.1
2017-Oct-13 06:00N 37°07' W 008°32'4 8.6
2017-Oct-13 05:30N 37°03' W 008°30'5 6.5
2017-Oct-13 04:46N 36°59' W 008°28'0 0.6
2017-Oct-13 04:29N 36°59' W 008°28'1 0.6
2017-Oct-13 02:44N 36°59' W 008°26'0 0.4
2017-Oct-13 02:22N 36°59' W 008°26'3 2.6
2017-Oct-13 01:02N 37°00' W 008°30'2 7.6
2017-Oct-13 00:43N 36°59' W 008°33'1 5.3
2017-Oct-13 00:27N 37°00' W 008°35'5 7.3
2017-Oct-12 23:44N 37°05' W 008°33'2 8.8
2017-Oct-12 23:30N 37°07' W 008°32'1 0.1
2017-Oct-12 08:58N 37°08' W 008°32'0 0.0
2017-Oct-12 08:30N 37°08' W 008°32'0 0.2
2017-Oct-12 08:00N 37°08' W 008°32'2 3.6
2017-Oct-12 07:30N 37°06' W 008°32'5 9.1
2017-Oct-12 06:57N 37°03' W 008°37'3 6.9
2017-Oct-12 06:30N 37°01' W 008°40'0 0.5
2017-Oct-12 05:55N 37°01' W 008°40'0 0.3
2017-Oct-12 05:29N 37°01' W 008°40'0 0.2
2017-Oct-12 04:59N 37°01' W 008°39'3 5.5
2017-Oct-12 04:30N 37°00' W 008°36'1 2.0
2017-Oct-12 03:59N 37°01' W 008°36'1 2.0
2017-Oct-12 03:30N 37°00' W 008°37'0 0.6
2017-Oct-12 02:59N 37°00' W 008°36'0 0.5
2017-Oct-12 02:30N 37°00' W 008°36'0 0.2
2017-Oct-12 02:00N 37°00' W 008°36'0 0.5
2017-Oct-12 01:27N 37°01' W 008°36'1 1.4
2017-Oct-12 01:00N 37°00' W 008°35'1016.1
2017-Oct-12 00:23N 37°01' W 008°23'614.9
2017-Oct-11 23:59N 37°03' W 008°30'4 7.4
2017-Oct-11 23:30N 37°06' W 008°32'2 0.1
2017-Oct-10 07:48N 37°08' W 008°32'2 5.9
2017-Oct-10 07:25N 37°06' W 008°32'2 5.6
2017-Oct-10 07:01N 37°04' W 008°33'3 5.9
2017-Oct-10 06:30N 37°01' W 008°35'3 5.9
2017-Oct-10 06:00N 37°01' W 008°39'4 7.3
2017-Oct-10 05:30N 37°02' W 008°43'4 7.3
2017-Oct-10 04:59N 37°01' W 008°48'3 7.2
2017-Oct-10 04:30N 37°00' W 008°52'4 7.2
2017-Oct-10 04:00N 36°59' W 008°57'2 4.4
2017-Oct-10 03:30N 37°01' W 008°58'3 5.1
2017-Oct-10 03:00N 36°59' W 008°57'3 4.8
2017-Oct-10 02:25N 37°00' W 008°54'5 9.0
2017-Oct-10 01:55N 37°02' W 008°49'3 7.1
2017-Oct-10 01:30N 37°02' W 008°45'4 8.3
2017-Oct-10 00:59N 37°01' W 008°40'3 5.5
2017-Oct-10 00:22N 37°00' W 008°35'2 5.7
2017-Oct-10 00:00N 37°02' W 008°34'5 8.2
2017-Oct-09 23:25N 37°07' W 008°32'1 3.5
2017-Oct-09 23:00N 37°08' W 008°32'  

Dump ship's entire track history